Hovedside
METAR-TAF:

METAR-TAF

Lufthavner :

Port Moresby, Papua Ny-Guinea

breddegrad: 09-26S, lengdegrad: 147-13E, høyde over havet: 38 m

Gjeldene værobservasjon

Denne rapporten ble laget for 1 time og 29 minutter siden, klokken 19:00 UTC
Vind 4 kt fra skiftende retning
Temperatur 25°C
Luftfuktighet 94%
Trykk 1009 hPa
Sikt 10 km eller mer
Få skyer i en høyde av 5000 ft

METAR: AYPY 181900Z VRB04KT 9999 FEW050 25/24 Q1009

Tid: 06:29 (20:29 UTC)

Varsel

Varsel gyldig fra 18. klokken 12 UTC til 19. klokken 12 UTC
Vind 5 kt fra Nord
Sikt 10 km eller mer
Få skyer i en høyde av 1800 ft
Spredte skyer i en høyde av 4000 ft
Fra 18. klokken 1800 UTC
Vind kt fra Nord
Sikt: 1007 m
Brutte skyer i en høyde av 3500 ft

TAF: AYPY 1812/1912 36005KT 9999 FEW018 SCT040 FM181800 00000KT 9999 BKN035 T 27 26 26 25 Q 1009 1008 1006 1007

Værobservasjoner og værvarsel for over 4000 flyplasser (METAR- og TAF-rapporter).

Tilgjengelige stasjoner er representert av de røde og gule prikkene på kartet.

Hold musepekeren over prikken for å se navnet på stasjonen.

Klikk så for å se værobservasjoner og -varsler.

For å forandre kartet kan du klikke på den grønne knappen med svart kryss for å zoome inn, på den grønne knappen med strek for å zoome ut, eller på de grønne pilene for å se tilstøtende kart.


METAR-TAF: